Ocean Exporter — VRXJ4 — position and weather

sailwx.info

Track history (hours):
 
Tides and Currents Weather Stations Pressure Air Temp Water Temp Dewpoint Dewpoint Depression Visibility Wind Speed Wind Dir Waves Ship Positions

Ocean Exporter

Last reported at 2017-May-17 15:44 UTC. Time now 2017-May-24 17:41 UTC.
Position N 01°15' E 104°02'.

Length 169 m; draft 9.8 m.

Type: Cargo ship. MMSI: 477980000.

Date/timePositionNaut miles runAvg speedWind from/ knotsBaromVisibWave heightAir tempDewpointWater temp
2017-May-17 15:44N 01°15' E 104°02'311.4
2017-May-17 15:30N 01°15' E 103°60'611.5
2017-May-17 14:58N 01°12' E 103°54'1010.8
2017-May-17 14:00N 01°07' E 103°45'611.5
2017-May-17 13:30N 01°04' E 103°40'510.3
2017-May-17 13:00N 01°05' E 103°35'611.5
2017-May-17 12:30N 01°08' E 103°31'711.5
2017-May-17 11:56N 01°11' E 103°25'6312.2
2017-May-17 06:47N 01°45' E 102°32'512.9
2017-May-17 06:25N 01°47' E 102°28'613.3
2017-May-17 05:58N 01°50' E 102°23'  
2017-May-12 11:24N 01°54' E 102°23'512.6
2017-May-12 11:00N 01°52' E 102°28'713.0
2017-May-12 10:27N 01°49' E 102°34'613.8
2017-May-12 10:00N 01°46' E 102°40'5913.3
2017-May-12 05:33N 01°13' E 103°29'211.1
2017-May-12 05:20N 01°13' E 103°31'410.7
2017-May-12 05:00N 01°12' E 103°35'510.3
2017-May-12 04:30N 01°11' E 103°40'510.3
2017-May-12 04:01N 01°08' E 103°44'611.1
2017-May-12 03:30N 01°11' E 103°50'5 9.3
2017-May-12 02:57N 01°14' E 103°54'0 0.5
2017-May-12 02:30N 01°14' E 103°54'1 2.9
2017-May-12 02:00N 01°14' E 103°55'713.0
2017-May-12 01:30N 01°16' E 104°02'  
Track history (hours):
 
Tides and Currents Weather Stations Pressure Air Temp Water Temp Dewpoint Dewpoint Depression Visibility Wind Speed Wind Dir Waves Ship Positions

Ocean Exporter

Last reported at 2017-May-17 15:44 UTC. Time now 2017-May-24 17:41 UTC.
Position N 01°15' E 104°02'.

Length 169 m; draft 9.8 m.

Type: Cargo ship. MMSI: 477980000.

Date/timePositionNaut miles runAvg speedWind from/ knotsBaromVisibWave heightAir tempDewpointWater temp
2017-May-17 15:44N 01°15' E 104°02'311.4
2017-May-17 15:30N 01°15' E 103°60'611.5
2017-May-17 14:58N 01°12' E 103°54'1010.8
2017-May-17 14:00N 01°07' E 103°45'611.5
2017-May-17 13:30N 01°04' E 103°40'510.3
2017-May-17 13:00N 01°05' E 103°35'611.5
2017-May-17 12:30N 01°08' E 103°31'711.5
2017-May-17 11:56N 01°11' E 103°25'6312.2
2017-May-17 06:47N 01°45' E 102°32'512.9
2017-May-17 06:25N 01°47' E 102°28'613.3
2017-May-17 05:58N 01°50' E 102°23'  
2017-May-12 11:24N 01°54' E 102°23'512.6
2017-May-12 11:00N 01°52' E 102°28'713.0
2017-May-12 10:27N 01°49' E 102°34'613.8
2017-May-12 10:00N 01°46' E 102°40'5913.3
2017-May-12 05:33N 01°13' E 103°29'211.1
2017-May-12 05:20N 01°13' E 103°31'410.7
2017-May-12 05:00N 01°12' E 103°35'510.3
2017-May-12 04:30N 01°11' E 103°40'510.3
2017-May-12 04:01N 01°08' E 103°44'611.1
2017-May-12 03:30N 01°11' E 103°50'5 9.3
2017-May-12 02:57N 01°14' E 103°54'0 0.5
2017-May-12 02:30N 01°14' E 103°54'1 2.9
2017-May-12 02:00N 01°14' E 103°55'713.0
2017-May-12 01:30N 01°16' E 104°02'  

Dump ship's entire track history